Terminal Aerodrome Forecast
Issued by NWS Lake Charles, LA

Home | Current Version | Previous Version | Text Only | Print | Product List | Glossary On
Versions: 1 2 3 4 5 6 7 8 9 10 11 12 13 14 15 16
000
FTUS44 KLCH 221100
TAFAEX
TAF
KAEX 221131Z 2212/2312 VRB03KT P6SM FEW200
     FM221400 22005KT P6SM FEW030 FEW050 SCT200
      TEMPO 2219/2222 4SM TSRA SCT035 BKN050CB
     FM222300 VRB03KT P6SM FEW060 OVC250=

USA.gov is the U.S. government's official web portal to all federal, state and local government web resources and services.